Atlantic Island — C4VM2 — position and weather

sailwx.info

Track history (hours):
 
Tides and Currents Weather Stations Pressure Air Temp Water Temp Dewpoint Dewpoint Depression Visibility Wind Speed Wind Dir Waves Ship Positions

Atlantic Island

Last reported at 2014-Nov-11 01:31 UTC. Time now 2014-Nov-24 17:40 UTC.
Position N 38°37' W 009°22'.
Warning: this ship's position is 13 days out of date.

Length 95 m; draft 5.5 m.

Type: Cargo ship. MMSI: 210754000.

Date/timePositionNaut miles runAvg speedWind from/ knotsBaromVisibWave heightAir tempDewpointWater temp
2014-Nov-11 01:31N 38°37' W 009°22'8 8.7
2014-Nov-11 00:33N 38°41' W 009°13'7 6.9
2014-Nov-10 23:33N 38°40' W 009°04'0 0.0
2014-Nov-10 22:33N 38°40' W 009°04'0 0.0
2014-Nov-10 21:33N 38°40' W 009°04'0 0.0
2014-Nov-10 20:33N 38°40' W 009°04'0 0.0
2014-Nov-10 19:33N 38°40' W 009°04'0 0.0
2014-Nov-10 18:33N 38°40' W 009°04'0 0.0
2014-Nov-10 17:33N 38°40' W 009°04'0 0.0
2014-Nov-10 16:33N 38°40' W 009°04'0 0.0
2014-Nov-10 15:33N 38°40' W 009°04'0 0.0
2014-Nov-10 14:33N 38°40' W 009°04'0 0.0
2014-Nov-10 13:33N 38°40' W 009°04'0 0.0
2014-Nov-10 12:33N 38°40' W 009°04'0 0.0
2014-Nov-10 11:33N 38°40' W 009°04'0 0.0
2014-Nov-10 10:33N 38°40' W 009°04'0 0.0
2014-Nov-10 09:24N 38°40' W 009°04'0 0.0
2014-Nov-10 08:33N 38°40' W 009°04'0 0.0
2014-Nov-10 07:33N 38°40' W 009°04'0 0.0
2014-Nov-10 06:33N 38°40' W 009°04'0 0.0
2014-Nov-10 05:30N 38°40' W 009°04'0 0.0
2014-Nov-10 04:33N 38°40' W 009°04'0 0.0
2014-Nov-10 03:33N 38°40' W 009°04'0 0.0
2014-Nov-10 02:33N 38°40' W 009°04'0 0.0
2014-Nov-10 01:33N 38°40' W 009°04'0 0.1
2014-Nov-10 00:32N 38°40' W 009°04'0 0.1
2014-Nov-09 23:33N 38°40' W 009°04'0 0.0
2014-Nov-09 22:32N 38°40' W 009°04'0 0.0
2014-Nov-09 21:32N 38°40' W 009°04'0 0.0
2014-Nov-09 20:32N 38°40' W 009°04'0 0.0
2014-Nov-09 19:32N 38°40' W 009°04'0 0.0
2014-Nov-09 18:32N 38°40' W 009°04'0 0.0
2014-Nov-09 17:32N 38°40' W 009°04'0 0.0
2014-Nov-09 16:32N 38°40' W 009°04'0 0.0
2014-Nov-09 15:29N 38°40' W 009°04'0 0.0
2014-Nov-09 14:32N 38°40' W 009°04'0 0.0
2014-Nov-09 13:32N 38°40' W 009°04'0 0.0
2014-Nov-09 12:32N 38°40' W 009°04'0 0.0
2014-Nov-09 11:32N 38°40' W 009°04'0 0.0
2014-Nov-09 10:32N 38°40' W 009°04'0 0.0
2014-Nov-09 09:32N 38°40' W 009°04'0 0.0
2014-Nov-09 08:32N 38°40' W 009°04'0 0.0
2014-Nov-09 07:32N 38°40' W 009°04'0 0.0
2014-Nov-09 06:32N 38°40' W 009°04'0 0.0
2014-Nov-09 05:32N 38°40' W 009°04'0 0.0
2014-Nov-09 04:32N 38°40' W 009°04'0 0.0
2014-Nov-09 03:32N 38°40' W 009°04'0 0.0
2014-Nov-09 02:32N 38°40' W 009°04'0 0.0
2014-Nov-09 01:32N 38°40' W 009°04'0 0.0
2014-Nov-09 00:32N 38°40' W 009°04'0 0.0
2014-Nov-08 23:32N 38°40' W 009°04'0 0.0
2014-Nov-08 22:32N 38°40' W 009°04'0 0.0
2014-Nov-08 21:32N 38°40' W 009°04'0 0.0
2014-Nov-08 20:29N 38°40' W 009°04'0 0.0
2014-Nov-08 19:32N 38°40' W 009°04'0 0.0
2014-Nov-08 18:32N 38°40' W 009°04'0 0.0
2014-Nov-08 17:32N 38°40' W 009°04'0 0.0
2014-Nov-08 16:32N 38°40' W 009°04'0 0.0
2014-Nov-08 15:32N 38°40' W 009°04'0 0.0
2014-Nov-08 14:32N 38°40' W 009°04'0 0.0
2014-Nov-08 13:31N 38°40' W 009°04'0 0.0
2014-Nov-08 12:31N 38°40' W 009°04'0 0.0
2014-Nov-08 11:31N 38°40' W 009°04'0 0.0
2014-Nov-08 10:31N 38°40' W 009°04'0 0.0
2014-Nov-08 09:31N 38°40' W 009°04'0 0.0
2014-Nov-08 08:31N 38°40' W 009°04'0 0.0
2014-Nov-08 07:31N 38°40' W 009°04'0 0.0
2014-Nov-08 06:28N 38°40' W 009°04'0 0.0
2014-Nov-08 05:31N 38°40' W 009°04'0 0.0
2014-Nov-08 04:31N 38°40' W 009°04'0 0.0
2014-Nov-08 03:31N 38°40' W 009°04'0 0.0
2014-Nov-08 02:31N 38°40' W 009°04'0 0.0
2014-Nov-08 01:31N 38°40' W 009°04'0 0.0
2014-Nov-08 00:30N 38°40' W 009°04'7 7.2
2014-Nov-07 23:34N 38°41' W 009°13'7 6.5
2014-Nov-07 22:32N 38°38' W 009°21'3 0.4
2014-Nov-07 14:26N 38°37' W 009°24'19 9.5
2014-Nov-07 12:26N 38°18' W 009°22'8 9.2
2014-Nov-07 11:34N 38°10' W 009°22'9 8.8
2014-Nov-07 10:33N 38°01' W 009°23'9 8.6
2014-Nov-07 09:33N 37°52' W 009°22'8 8.4
2014-Nov-07 08:33N 37°44' W 009°21'8 8.5
2014-Nov-07 07:33N 37°35' W 009°21'205 8.5
2014-Nov-06 07:32N 35°58' W 005°36'7 7.0
2014-Nov-06 06:33N 35°60' W 005°28'6 5.8
2014-Nov-06 05:33N 36°01' W 005°21'7 7.1
2014-Nov-06 04:34N 36°02' W 005°12'227 8.4
2014-Nov-05 01:27N 37°24' W 000°49'16 8.4
2014-Nov-04 23:33N 37°35' W 000°33'9 8.6
2014-Nov-04 22:33N 37°43' W 000°31'9 9.2
2014-Nov-04 21:34N 37°52' W 000°28'10 9.9
2014-Nov-04 20:33N 38°02' W 000°26'  
Track history (hours):
 
Tides and Currents Weather Stations Pressure Air Temp Water Temp Dewpoint Dewpoint Depression Visibility Wind Speed Wind Dir Waves Ship Positions

Atlantic Island

Last reported at 2014-Nov-11 01:31 UTC. Time now 2014-Nov-24 17:40 UTC.
Position N 38°37' W 009°22'.
Warning: this ship's position is 13 days out of date.

Length 95 m; draft 5.5 m.

Type: Cargo ship. MMSI: 210754000.

Date/timePositionNaut miles runAvg speedWind from/ knotsBaromVisibWave heightAir tempDewpointWater temp
2014-Nov-11 01:31N 38°37' W 009°22'8 8.7
2014-Nov-11 00:33N 38°41' W 009°13'7 6.9
2014-Nov-10 23:33N 38°40' W 009°04'0 0.0
2014-Nov-10 22:33N 38°40' W 009°04'0 0.0
2014-Nov-10 21:33N 38°40' W 009°04'0 0.0
2014-Nov-10 20:33N 38°40' W 009°04'0 0.0
2014-Nov-10 19:33N 38°40' W 009°04'0 0.0
2014-Nov-10 18:33N 38°40' W 009°04'0 0.0
2014-Nov-10 17:33N 38°40' W 009°04'0 0.0
2014-Nov-10 16:33N 38°40' W 009°04'0 0.0
2014-Nov-10 15:33N 38°40' W 009°04'0 0.0
2014-Nov-10 14:33N 38°40' W 009°04'0 0.0
2014-Nov-10 13:33N 38°40' W 009°04'0 0.0
2014-Nov-10 12:33N 38°40' W 009°04'0 0.0
2014-Nov-10 11:33N 38°40' W 009°04'0 0.0
2014-Nov-10 10:33N 38°40' W 009°04'0 0.0
2014-Nov-10 09:24N 38°40' W 009°04'0 0.0
2014-Nov-10 08:33N 38°40' W 009°04'0 0.0
2014-Nov-10 07:33N 38°40' W 009°04'0 0.0
2014-Nov-10 06:33N 38°40' W 009°04'0 0.0
2014-Nov-10 05:30N 38°40' W 009°04'0 0.0
2014-Nov-10 04:33N 38°40' W 009°04'0 0.0
2014-Nov-10 03:33N 38°40' W 009°04'0 0.0
2014-Nov-10 02:33N 38°40' W 009°04'0 0.0
2014-Nov-10 01:33N 38°40' W 009°04'0 0.1
2014-Nov-10 00:32N 38°40' W 009°04'0 0.1
2014-Nov-09 23:33N 38°40' W 009°04'0 0.0
2014-Nov-09 22:32N 38°40' W 009°04'0 0.0
2014-Nov-09 21:32N 38°40' W 009°04'0 0.0
2014-Nov-09 20:32N 38°40' W 009°04'0 0.0
2014-Nov-09 19:32N 38°40' W 009°04'0 0.0
2014-Nov-09 18:32N 38°40' W 009°04'0 0.0
2014-Nov-09 17:32N 38°40' W 009°04'0 0.0
2014-Nov-09 16:32N 38°40' W 009°04'0 0.0
2014-Nov-09 15:29N 38°40' W 009°04'0 0.0
2014-Nov-09 14:32N 38°40' W 009°04'0 0.0
2014-Nov-09 13:32N 38°40' W 009°04'0 0.0
2014-Nov-09 12:32N 38°40' W 009°04'0 0.0
2014-Nov-09 11:32N 38°40' W 009°04'0 0.0
2014-Nov-09 10:32N 38°40' W 009°04'0 0.0
2014-Nov-09 09:32N 38°40' W 009°04'0 0.0
2014-Nov-09 08:32N 38°40' W 009°04'0 0.0
2014-Nov-09 07:32N 38°40' W 009°04'0 0.0
2014-Nov-09 06:32N 38°40' W 009°04'0 0.0
2014-Nov-09 05:32N 38°40' W 009°04'0 0.0
2014-Nov-09 04:32N 38°40' W 009°04'0 0.0
2014-Nov-09 03:32N 38°40' W 009°04'0 0.0
2014-Nov-09 02:32N 38°40' W 009°04'0 0.0
2014-Nov-09 01:32N 38°40' W 009°04'0 0.0
2014-Nov-09 00:32N 38°40' W 009°04'0 0.0
2014-Nov-08 23:32N 38°40' W 009°04'0 0.0
2014-Nov-08 22:32N 38°40' W 009°04'0 0.0
2014-Nov-08 21:32N 38°40' W 009°04'0 0.0
2014-Nov-08 20:29N 38°40' W 009°04'0 0.0
2014-Nov-08 19:32N 38°40' W 009°04'0 0.0
2014-Nov-08 18:32N 38°40' W 009°04'0 0.0
2014-Nov-08 17:32N 38°40' W 009°04'0 0.0
2014-Nov-08 16:32N 38°40' W 009°04'0 0.0
2014-Nov-08 15:32N 38°40' W 009°04'0 0.0
2014-Nov-08 14:32N 38°40' W 009°04'0 0.0
2014-Nov-08 13:31N 38°40' W 009°04'0 0.0
2014-Nov-08 12:31N 38°40' W 009°04'0 0.0
2014-Nov-08 11:31N 38°40' W 009°04'0 0.0
2014-Nov-08 10:31N 38°40' W 009°04'0 0.0
2014-Nov-08 09:31N 38°40' W 009°04'0 0.0
2014-Nov-08 08:31N 38°40' W 009°04'0 0.0
2014-Nov-08 07:31N 38°40' W 009°04'0 0.0
2014-Nov-08 06:28N 38°40' W 009°04'0 0.0
2014-Nov-08 05:31N 38°40' W 009°04'0 0.0
2014-Nov-08 04:31N 38°40' W 009°04'0 0.0
2014-Nov-08 03:31N 38°40' W 009°04'0 0.0
2014-Nov-08 02:31N 38°40' W 009°04'0 0.0
2014-Nov-08 01:31N 38°40' W 009°04'0 0.0
2014-Nov-08 00:30N 38°40' W 009°04'7 7.2
2014-Nov-07 23:34N 38°41' W 009°13'7 6.5
2014-Nov-07 22:32N 38°38' W 009°21'3 0.4
2014-Nov-07 14:26N 38°37' W 009°24'19 9.5
2014-Nov-07 12:26N 38°18' W 009°22'8 9.2
2014-Nov-07 11:34N 38°10' W 009°22'9 8.8
2014-Nov-07 10:33N 38°01' W 009°23'9 8.6
2014-Nov-07 09:33N 37°52' W 009°22'8 8.4
2014-Nov-07 08:33N 37°44' W 009°21'8 8.5
2014-Nov-07 07:33N 37°35' W 009°21'205 8.5
2014-Nov-06 07:32N 35°58' W 005°36'7 7.0
2014-Nov-06 06:33N 35°60' W 005°28'6 5.8
2014-Nov-06 05:33N 36°01' W 005°21'7 7.1
2014-Nov-06 04:34N 36°02' W 005°12'227 8.4
2014-Nov-05 01:27N 37°24' W 000°49'16 8.4
2014-Nov-04 23:33N 37°35' W 000°33'9 8.6
2014-Nov-04 22:33N 37°43' W 000°31'9 9.2
2014-Nov-04 21:34N 37°52' W 000°28'10 9.9
2014-Nov-04 20:33N 38°02' W 000°26'  

Dump ship's entire track history